sensor_id;sensor_type;location;lat;lon;timestamp;pressure;altitude;pressure_sealevel;temperature;humidity
36834;BME280;48003;52.084;5.224;2023-05-20T00:01:26;102575.0;;;16.89;53.76
36834;BME280;48003;52.084;5.224;2023-05-20T00:04:39;102571.0;;;16.93;53.73
36834;BME280;48003;52.084;5.224;2023-05-20T00:06:15;102570.0;;;16.86;54.29
36834;BME280;48003;52.084;5.224;2023-05-20T00:07:51;102563.00000000001;;;16.81;54.22
36834;BME280;48003;52.084;5.224;2023-05-20T00:11:04;102567.0;;;16.72;54.62
36834;BME280;48003;52.084;5.224;2023-05-20T00:12:40;102558.99999999999;;;16.7;54.8
36834;BME280;48003;52.084;5.224;2023-05-20T00:14:16;102558.99999999999;;;16.64;54.77
36834;BME280;48003;52.084;5.224;2023-05-20T00:17:29;102564.00000000001;;;16.7;54.87
36834;BME280;48003;52.084;5.224;2023-05-20T00:19:06;102567.0;;;16.68;55.15
36834;BME280;48003;52.084;5.224;2023-05-20T00:20:42;102565.00000000001;;;16.63;55.13
36834;BME280;48003;52.084;5.224;2023-05-20T00:22:18;102566.00000000001;;;16.57;55.31
36834;BME280;48003;52.084;5.224;2023-05-20T00:25:30;102569.0;;;16.54;55.39
36834;BME280;48003;52.084;5.224;2023-05-20T00:27:06;102567.0;;;16.45;55.73
36834;BME280;48003;52.084;5.224;2023-05-20T00:28:43;102568.0;;;16.43;55.88
36834;BME280;48003;52.084;5.224;2023-05-20T00:31:55;102567.0;;;16.43;55.86
36834;BME280;48003;52.084;5.224;2023-05-20T00:33:31;102564.00000000001;;;16.45;55.86
36834;BME280;48003;52.084;5.224;2023-05-20T00:35:08;102558.99999999999;;;16.41;56.06
36834;BME280;48003;52.084;5.224;2023-05-20T00:38:20;102564.00000000001;;;16.41;56.08
36834;BME280;48003;52.084;5.224;2023-05-20T00:39:56;102559.99999999999;;;16.38;56.27
36834;BME280;48003;52.084;5.224;2023-05-20T00:41:32;102563.00000000001;;;16.37;56.36
36834;BME280;48003;52.084;5.224;2023-05-20T00:43:08;102563.00000000001;;;16.32;56.46
36834;BME280;48003;52.084;5.224;2023-05-20T00:46:22;102563.00000000001;;;16.28;56.55
36834;BME280;48003;52.084;5.224;2023-05-20T00:47:59;102563.00000000001;;;16.21;56.71
36834;BME280;48003;52.084;5.224;2023-05-20T00:49:36;102561.99999999999;;;16.2;56.68
36834;BME280;48003;52.084;5.224;2023-05-20T00:52:49;102555.0;;;16.23;56.75
36834;BME280;48003;52.084;5.224;2023-05-20T00:54:25;102551.0;;;16.22;56.79
36834;BME280;48003;52.084;5.224;2023-05-20T00:56:01;102547.0;;;16.18;56.72
36834;BME280;48003;52.084;5.224;2023-05-20T00:59:15;102550.0;;;16.25;56.67
36834;BME280;48003;52.084;5.224;2023-05-20T01:00:50;102554.0;;;16.23;56.76
36834;BME280;48003;52.084;5.224;2023-05-20T01:02:27;102547.0;;;16.22;56.84
36834;BME280;48003;52.084;5.224;2023-05-20T01:04:04;102546.0;;;16.25;56.88
36834;BME280;48003;52.084;5.224;2023-05-20T01:07:17;102543.0;;;16.25;56.96
36834;BME280;48003;52.084;5.224;2023-05-20T01:08:53;102542.0;;;16.25;57.11
36834;BME280;48003;52.084;5.224;2023-05-20T01:10:30;102541.00000000001;;;16.25;57.2
36834;BME280;48003;52.084;5.224;2023-05-20T01:13:54;102539.00000000001;;;16.27;56.92
36834;BME280;48003;52.084;5.224;2023-05-20T01:15:33;102538.00000000001;;;16.27;57.02
36834;BME280;48003;52.084;5.224;2023-05-20T01:17:10;102536.99999999999;;;16.27;57.02
36834;BME280;48003;52.084;5.224;2023-05-20T01:18:48;102531.0;;;16.21;57.1
36834;BME280;48003;52.084;5.224;2023-05-20T01:22:06;102530.0;;;16.15;57.29
36834;BME280;48003;52.084;5.224;2023-05-20T01:23:43;102529.0;;;16.11;57.49
36834;BME280;48003;52.084;5.224;2023-05-20T01:25:19;102530.0;;;16.15;57.59
36834;BME280;48003;52.084;5.224;2023-05-20T01:28:33;102527.0;;;16.11;57.59
36834;BME280;48003;52.084;5.224;2023-05-20T01:30:11;102525.0;;;16.13;57.49
36834;BME280;48003;52.084;5.224;2023-05-20T01:31:47;102523.0;;;16.11;57.5
36834;BME280;48003;52.084;5.224;2023-05-20T01:33:24;102522.0;;;16.05;57.72
36834;BME280;48003;52.084;5.224;2023-05-20T01:36:44;102521.0;;;16.02;57.83
36834;BME280;48003;52.084;5.224;2023-05-20T01:39:59;102514.00000000001;;;15.97;58.01
36834;BME280;48003;52.084;5.224;2023-05-20T01:43:13;102508.99999999999;;;15.99;58.05
36834;BME280;48003;52.084;5.224;2023-05-20T01:44:50;102507.0;;;15.93;58.1
36834;BME280;48003;52.084;5.224;2023-05-20T01:46:26;102508.0;;;15.89;58.19
36834;BME280;48003;52.084;5.224;2023-05-20T01:48:02;102513.00000000001;;;15.87;58.4
36834;BME280;48003;52.084;5.224;2023-05-20T01:51:14;102508.99999999999;;;15.83;58.45
36834;BME280;48003;52.084;5.224;2023-05-20T01:52:51;102508.0;;;15.78;58.49
36834;BME280;48003;52.084;5.224;2023-05-20T01:54:27;102513.00000000001;;;15.81;58.39
36834;BME280;48003;52.084;5.224;2023-05-20T01:57:40;102509.99999999999;;;15.81;58.32
36834;BME280;48003;52.084;5.224;2023-05-20T01:59:16;102511.99999999999;;;15.78;58.44
36834;BME280;48003;52.084;5.224;2023-05-20T02:00:52;102513.00000000001;;;15.75;58.52
36834;BME280;48003;52.084;5.224;2023-05-20T02:04:05;102508.99999999999;;;15.8;58.34
36834;BME280;48003;52.084;5.224;2023-05-20T02:05:41;102507.0;;;15.76;58.43
36834;BME280;48003;52.084;5.224;2023-05-20T02:07:18;102505.0;;;15.75;58.47
36834;BME280;48003;52.084;5.224;2023-05-20T02:08:55;102503.0;;;15.71;58.61
36834;BME280;48003;52.084;5.224;2023-05-20T02:12:07;102506.0;;;15.68;58.65
36834;BME280;48003;52.084;5.224;2023-05-20T02:13:44;102502.0;;;15.71;58.68
36834;BME280;48003;52.084;5.224;2023-05-20T02:15:20;102502.0;;;15.66;58.87
36834;BME280;48003;52.084;5.224;2023-05-20T02:18:32;102504.0;;;15.67;59.01
36834;BME280;48003;52.084;5.224;2023-05-20T02:20:09;102507.0;;;15.64;59.05
36834;BME280;48003;52.084;5.224;2023-05-20T02:21:46;102509.99999999999;;;15.62;59.16
36834;BME280;48003;52.084;5.224;2023-05-20T02:24:58;102511.99999999999;;;15.58;59.29
36834;BME280;48003;52.084;5.224;2023-05-20T02:26:34;102509.99999999999;;;15.59;59.19
36834;BME280;48003;52.084;5.224;2023-05-20T02:28:11;102511.99999999999;;;15.59;59.18
36834;BME280;48003;52.084;5.224;2023-05-20T02:31:23;102508.99999999999;;;15.55;59.34
36834;BME280;48003;52.084;5.224;2023-05-20T02:32:59;102507.0;;;15.58;59.41
36834;BME280;48003;52.084;5.224;2023-05-20T02:34:35;102498.0;;;15.55;59.39
36834;BME280;48003;52.084;5.224;2023-05-20T02:36:11;102502.0;;;15.52;59.44
36834;BME280;48003;52.084;5.224;2023-05-20T02:39:24;102504.0;;;15.45;59.75
36834;BME280;48003;52.084;5.224;2023-05-20T02:41:00;102495.0;;;15.44;59.71
36834;BME280;48003;52.084;5.224;2023-05-20T02:42:36;102492.0;;;15.42;59.93
36834;BME280;48003;52.084;5.224;2023-05-20T02:45:49;102492.0;;;15.38;60.09
36834;BME280;48003;52.084;5.224;2023-05-20T02:47:26;102492.0;;;15.36;60.07
36834;BME280;48003;52.084;5.224;2023-05-20T02:49:02;102492.0;;;15.34;60.08
36834;BME280;48003;52.084;5.224;2023-05-20T02:52:14;102486.99999999999;;;15.33;60.29
36834;BME280;48003;52.084;5.224;2023-05-20T02:53:51;102486.99999999999;;;15.31;60.29
36834;BME280;48003;52.084;5.224;2023-05-20T02:55:27;102486.99999999999;;;15.33;60.34
36834;BME280;48003;52.084;5.224;2023-05-20T02:57:03;102486.99999999999;;;15.29;60.47
36834;BME280;48003;52.084;5.224;2023-05-20T03:00:15;102490.00000000001;;;15.27;60.47
36834;BME280;48003;52.084;5.224;2023-05-20T03:01:52;102490.00000000001;;;15.22;60.68
36834;BME280;48003;52.084;5.224;2023-05-20T03:03:28;102490.00000000001;;;15.16;60.88
36834;BME280;48003;52.084;5.224;2023-05-20T03:06:41;102486.99999999999;;;15.12;61.02
36834;BME280;48003;52.084;5.224;2023-05-20T03:08:19;102486.99999999999;;;15.09;61.17
36834;BME280;48003;52.084;5.224;2023-05-20T03:09:56;102492.0;;;15.09;61.3
36834;BME280;48003;52.084;5.224;2023-05-20T03:13:08;102491.00000000001;;;15.11;61.24
36834;BME280;48003;52.084;5.224;2023-05-20T03:14:44;102491.00000000001;;;15.08;61.34
36834;BME280;48003;52.084;5.224;2023-05-20T03:16:20;102494.0;;;15.02;61.59
36834;BME280;48003;52.084;5.224;2023-05-20T03:17:57;102497.0;;;15.0;61.82
36834;BME280;48003;52.084;5.224;2023-05-20T03:21:10;102496.0;;;14.97;61.86
36834;BME280;48003;52.084;5.224;2023-05-20T03:22:46;102498.0;;;14.94;61.99
36834;BME280;48003;52.084;5.224;2023-05-20T03:24:22;102497.0;;;14.92;62.13
36834;BME280;48003;52.084;5.224;2023-05-20T03:27:34;102495.0;;;14.93;62.05
36834;BME280;48003;52.084;5.224;2023-05-20T03:29:11;102497.0;;;14.92;62.16
36834;BME280;48003;52.084;5.224;2023-05-20T03:30:47;102495.0;;;14.95;62.02
36834;BME280;48003;52.084;5.224;2023-05-20T03:33:59;102498.0;;;14.95;61.98
36834;BME280;48003;52.084;5.224;2023-05-20T03:35:36;102498.0;;;14.91;62.18
36834;BME280;48003;52.084;5.224;2023-05-20T03:37:12;102497.0;;;14.89;62.32
36834;BME280;48003;52.084;5.224;2023-05-20T03:40:24;102497.0;;;14.87;62.29
36834;BME280;48003;52.084;5.224;2023-05-20T03:42:00;102494.0;;;14.87;62.52
36834;BME280;48003;52.084;5.224;2023-05-20T03:43:36;102491.00000000001;;;14.85;62.55
36834;BME280;48003;52.084;5.224;2023-05-20T03:45:13;102492.0;;;14.87;62.45
36834;BME280;48003;52.084;5.224;2023-05-20T03:48:25;102494.0;;;14.85;62.57
36834;BME280;48003;52.084;5.224;2023-05-20T03:50:01;102492.0;;;14.84;62.62
36834;BME280;48003;52.084;5.224;2023-05-20T03:51:37;102491.00000000001;;;14.81;62.87
36834;BME280;48003;52.084;5.224;2023-05-20T03:54:50;102494.0;;;14.82;62.85
36834;BME280;48003;52.084;5.224;2023-05-20T03:56:26;102495.0;;;14.82;62.89
36834;BME280;48003;52.084;5.224;2023-05-20T03:58:02;102495.0;;;14.8;62.99
36834;BME280;48003;52.084;5.224;2023-05-20T04:01:15;102492.0;;;14.8;63.04
36834;BME280;48003;52.084;5.224;2023-05-20T04:02:51;102490.00000000001;;;14.82;63.01
36834;BME280;48003;52.084;5.224;2023-05-20T04:04:27;102484.99999999999;;;14.81;63.07
36834;BME280;48003;52.084;5.224;2023-05-20T04:06:03;102483.0;;;14.82;63.22
36834;BME280;48003;52.084;5.224;2023-05-20T04:10:54;102483.99999999999;;;14.85;63.37
36834;BME280;48003;52.084;5.224;2023-05-20T04:12:31;102484.99999999999;;;14.81;63.56
36834;BME280;48003;52.084;5.224;2023-05-20T04:15:43;102482.0;;;14.87;63.51
36834;BME280;48003;52.084;5.224;2023-05-20T04:17:19;102484.99999999999;;;14.9;63.45
36834;BME280;48003;52.084;5.224;2023-05-20T04:18:56;102488.00000000001;;;14.86;63.66
36834;BME280;48003;52.084;5.224;2023-05-20T04:22:08;102490.00000000001;;;14.91;63.7
36834;BME280;48003;52.084;5.224;2023-05-20T04:23:44;102490.00000000001;;;14.93;63.84
36834;BME280;48003;52.084;5.224;2023-05-20T04:25:20;102490.00000000001;;;14.98;63.75
36834;BME280;48003;52.084;5.224;2023-05-20T04:28:33;102491.00000000001;;;15.07;63.56
36834;BME280;48003;52.084;5.224;2023-05-20T04:30:10;102491.00000000001;;;15.09;63.54
36834;BME280;48003;52.084;5.224;2023-05-20T04:31:46;102493.0;;;15.1;63.42
36834;BME280;48003;52.084;5.224;2023-05-20T04:33:22;102489.00000000001;;;15.14;63.4
36834;BME280;48003;52.084;5.224;2023-05-20T04:36:35;102496.0;;;15.19;63.43
36834;BME280;48003;52.084;5.224;2023-05-20T04:38:11;102493.0;;;15.22;63.21
36834;BME280;48003;52.084;5.224;2023-05-20T04:39:47;102496.0;;;15.22;63.24
36834;BME280;48003;52.084;5.224;2023-05-20T04:42:59;102496.0;;;15.32;63.14
36834;BME280;48003;52.084;5.224;2023-05-20T04:44:35;102493.0;;;15.34;63.13
36834;BME280;48003;52.084;5.224;2023-05-20T04:46:12;102498.0;;;15.39;62.93
36834;BME280;48003;52.084;5.224;2023-05-20T04:49:24;102499.0;;;15.43;62.9
36834;BME280;48003;52.084;5.224;2023-05-20T04:51:01;102501.0;;;15.48;62.65
36834;BME280;48003;52.084;5.224;2023-05-20T04:52:38;102499.0;;;15.54;62.55
36834;BME280;48003;52.084;5.224;2023-05-20T04:54:15;102496.0;;;15.58;62.42
36834;BME280;48003;52.084;5.224;2023-05-20T04:57:29;102497.0;;;15.62;62.17
36834;BME280;48003;52.084;5.224;2023-05-20T04:59:05;102492.0;;;15.66;62.0
36834;BME280;48003;52.084;5.224;2023-05-20T05:00:42;102496.0;;;15.64;62.15
36834;BME280;48003;52.084;5.224;2023-05-20T05:03:55;102492.0;;;15.66;61.98
36834;BME280;48003;52.084;5.224;2023-05-20T05:05:31;102494.0;;;15.66;62.12
36834;BME280;48003;52.084;5.224;2023-05-20T05:07:07;102495.0;;;15.71;61.95
36834;BME280;48003;52.084;5.224;2023-05-20T05:10:20;102495.0;;;15.75;61.76
36834;BME280;48003;52.084;5.224;2023-05-20T05:11:56;102493.0;;;15.77;61.88
36834;BME280;48003;52.084;5.224;2023-05-20T05:13:32;102492.0;;;15.77;61.96
36834;BME280;48003;52.084;5.224;2023-05-20T05:15:09;102494.0;;;15.77;61.99
36834;BME280;48003;52.084;5.224;2023-05-20T05:18:22;102492.0;;;15.76;61.95
36834;BME280;48003;52.084;5.224;2023-05-20T05:19:58;102497.0;;;15.76;61.88
36834;BME280;48003;52.084;5.224;2023-05-20T05:21:34;102496.0;;;15.79;61.76
36834;BME280;48003;52.084;5.224;2023-05-20T05:24:46;102494.0;;;15.78;61.92
36834;BME280;48003;52.084;5.224;2023-05-20T05:26:22;102493.0;;;15.82;62.07
36834;BME280;48003;52.084;5.224;2023-05-20T05:27:59;102492.0;;;15.87;61.97
36834;BME280;48003;52.084;5.224;2023-05-20T05:31:11;102486.99999999999;;;15.9;61.65
36834;BME280;48003;52.084;5.224;2023-05-20T05:32:47;102484.99999999999;;;15.92;61.71
36834;BME280;48003;52.084;5.224;2023-05-20T05:34:23;102481.0;;;15.95;61.52
36834;BME280;48003;52.084;5.224;2023-05-20T05:37:36;102483.0;;;15.98;61.62
36834;BME280;48003;52.084;5.224;2023-05-20T05:39:12;102481.0;;;15.97;61.24
36834;BME280;48003;52.084;5.224;2023-05-20T05:40:48;102476.0;;;16.04;61.14
36834;BME280;48003;52.084;5.224;2023-05-20T05:42:24;102478.0;;;16.09;60.9
36834;BME280;48003;52.084;5.224;2023-05-20T05:45:37;102477.0;;;16.11;60.84
36834;BME280;48003;52.084;5.224;2023-05-20T05:47:14;102473.0;;;16.13;60.6
36834;BME280;48003;52.084;5.224;2023-05-20T05:48:50;102479.0;;;16.2;60.56
36834;BME280;48003;52.084;5.224;2023-05-20T05:52:03;102480.0;;;16.2;60.37
36834;BME280;48003;52.084;5.224;2023-05-20T05:53:39;102479.0;;;16.22;60.36
36834;BME280;48003;52.084;5.224;2023-05-20T05:55:15;102479.0;;;16.25;60.16
36834;BME280;48003;52.084;5.224;2023-05-20T05:58:28;102478.0;;;16.27;59.82
36834;BME280;48003;52.084;5.224;2023-05-20T06:00:06;102476.0;;;16.32;59.61
36834;BME280;48003;52.084;5.224;2023-05-20T06:01:43;102471.0;;;16.4;59.72
36834;BME280;48003;52.084;5.224;2023-05-20T06:03:19;102472.0;;;16.47;59.77
36834;BME280;48003;52.084;5.224;2023-05-20T06:06:32;102471.0;;;16.5;59.19
36834;BME280;48003;52.084;5.224;2023-05-20T06:08:08;102470.0;;;16.57;58.64
36834;BME280;48003;52.084;5.224;2023-05-20T06:09:45;102467.0;;;16.59;58.75
36834;BME280;48003;52.084;5.224;2023-05-20T06:12:57;102467.0;;;16.64;58.59
36834;BME280;48003;52.084;5.224;2023-05-20T06:14:33;102466.00000000001;;;16.7;58.62
36834;BME280;48003;52.084;5.224;2023-05-20T06:16:09;102461.99999999999;;;16.75;58.51
36834;BME280;48003;52.084;5.224;2023-05-20T06:19:22;102461.99999999999;;;16.78;58.53
36834;BME280;48003;52.084;5.224;2023-05-20T06:20:58;102468.0;;;16.77;58.47
36834;BME280;48003;52.084;5.224;2023-05-20T06:22:35;102467.0;;;16.77;58.73
36834;BME280;48003;52.084;5.224;2023-05-20T06:24:11;102467.0;;;16.84;58.23
36834;BME280;48003;52.084;5.224;2023-05-20T06:27:25;102468.0;;;16.9;58.28
36834;BME280;48003;52.084;5.224;2023-05-20T06:29:01;102467.0;;;16.91;58.05
36834;BME280;48003;52.084;5.224;2023-05-20T06:30:37;102469.0;;;16.98;58.33
36834;BME280;48003;52.084;5.224;2023-05-20T06:33:49;102469.0;;;17.02;58.1
36834;BME280;48003;52.084;5.224;2023-05-20T06:35:26;102471.0;;;17.11;58.13
36834;BME280;48003;52.084;5.224;2023-05-20T06:37:02;102469.0;;;17.12;57.87
36834;BME280;48003;52.084;5.224;2023-05-20T06:40:14;102470.0;;;17.16;57.71
36834;BME280;48003;52.084;5.224;2023-05-20T06:41:50;102467.0;;;17.23;57.42
36834;BME280;48003;52.084;5.224;2023-05-20T06:43:27;102467.0;;;17.25;57.42
36834;BME280;48003;52.084;5.224;2023-05-20T06:45:05;102466.00000000001;;;17.29;57.07
36834;BME280;48003;52.084;5.224;2023-05-20T06:48:17;102464.00000000001;;;17.41;56.77
36834;BME280;48003;52.084;5.224;2023-05-20T06:49:53;102458.99999999999;;;17.43;56.42
36834;BME280;48003;52.084;5.224;2023-05-20T06:51:29;102459.99999999999;;;17.41;56.11
36834;BME280;48003;52.084;5.224;2023-05-20T06:54:41;102458.0;;;17.52;56.19
36834;BME280;48003;52.084;5.224;2023-05-20T06:56:18;102459.99999999999;;;17.56;56.22
36834;BME280;48003;52.084;5.224;2023-05-20T06:57:54;102455.0;;;17.61;55.88
36834;BME280;48003;52.084;5.224;2023-05-20T07:01:06;102451.0;;;17.66;55.82
36834;BME280;48003;52.084;5.224;2023-05-20T07:02:42;102447.0;;;17.7;55.84
36834;BME280;48003;52.084;5.224;2023-05-20T07:04:19;102446.0;;;17.77;55.83
36834;BME280;48003;52.084;5.224;2023-05-20T07:07:31;102446.0;;;17.77;55.89
36834;BME280;48003;52.084;5.224;2023-05-20T07:09:07;102446.0;;;17.8;55.68
36834;BME280;48003;52.084;5.224;2023-05-20T07:10:44;102445.0;;;17.86;55.41
36834;BME280;48003;52.084;5.224;2023-05-20T07:12:20;102439.00000000001;;;17.96;55.43
36834;BME280;48003;52.084;5.224;2023-05-20T07:15:33;102442.0;;;17.96;55.48
36834;BME280;48003;52.084;5.224;2023-05-20T07:17:09;102441.00000000001;;;18.09;55.21
36834;BME280;48003;52.084;5.224;2023-05-20T07:18:46;102442.0;;;18.09;55.18
36834;BME280;48003;52.084;5.224;2023-05-20T07:21:59;102442.0;;;18.21;54.11
36834;BME280;48003;52.084;5.224;2023-05-20T07:23:35;102431.0;;;18.2;54.24
36834;BME280;48003;52.084;5.224;2023-05-20T07:25:11;102428.0;;;18.22;53.83
36834;BME280;48003;52.084;5.224;2023-05-20T07:28:23;102431.0;;;18.2;53.38
36834;BME280;48003;52.084;5.224;2023-05-20T07:30:00;102426.0;;;18.32;53.32
36834;BME280;48003;52.084;5.224;2023-05-20T07:31:36;102427.0;;;18.41;53.06
36834;BME280;48003;52.084;5.224;2023-05-20T07:33:12;102426.0;;;18.48;53.15
36834;BME280;48003;52.084;5.224;2023-05-20T07:36:25;102426.0;;;18.5;53.82
36834;BME280;48003;52.084;5.224;2023-05-20T07:38:01;102424.0;;;18.54;53.11
36834;BME280;48003;52.084;5.224;2023-05-20T07:39:37;102417.0;;;18.63;52.76
36834;BME280;48003;52.084;5.224;2023-05-20T07:42:50;102414.00000000001;;;18.66;52.67
36834;BME280;48003;52.084;5.224;2023-05-20T07:44:26;102417.0;;;18.8;52.13
36834;BME280;48003;52.084;5.224;2023-05-20T07:46:02;102415.00000000001;;;18.82;51.9
36834;BME280;48003;52.084;5.224;2023-05-20T07:49:15;102411.99999999999;;;18.95;51.49
36834;BME280;48003;52.084;5.224;2023-05-20T07:50:52;102405.0;;;19.02;51.45
36834;BME280;48003;52.084;5.224;2023-05-20T07:52:28;102403.0;;;19.04;51.76
36834;BME280;48003;52.084;5.224;2023-05-20T07:55:41;102405.0;;;19.09;51.33
36834;BME280;48003;52.084;5.224;2023-05-20T07:57:17;102397.0;;;19.06;50.28
36834;BME280;48003;52.084;5.224;2023-05-20T07:58:56;102401.0;;;19.09;50.4
36834;BME280;48003;52.084;5.224;2023-05-20T08:00:32;102400.0;;;19.18;49.65
36834;BME280;48003;52.084;5.224;2023-05-20T08:03:44;102401.0;;;19.2;49.59
36834;BME280;48003;52.084;5.224;2023-05-20T08:05:20;102394.0;;;19.2;49.71
36834;BME280;48003;52.084;5.224;2023-05-20T08:06:56;102397.0;;;19.27;49.53
36834;BME280;48003;52.084;5.224;2023-05-20T08:10:09;102400.0;;;19.31;48.86
36834;BME280;48003;52.084;5.224;2023-05-20T08:11:46;102392.0;;;19.31;49.38
36834;BME280;48003;52.084;5.224;2023-05-20T08:13:23;102388.0;;;19.39;48.63
36834;BME280;48003;52.084;5.224;2023-05-20T08:15:00;102388.0;;;19.43;48.72
36834;BME280;48003;52.084;5.224;2023-05-20T08:18:13;102390.0;;;19.52;48.29
36834;BME280;48003;52.084;5.224;2023-05-20T08:19:49;102394.0;;;19.57;48.6
36834;BME280;48003;52.084;5.224;2023-05-20T08:21:25;102393.0;;;19.62;47.51
36834;BME280;48003;52.084;5.224;2023-05-20T08:24:37;102392.0;;;19.72;47.74
36834;BME280;48003;52.084;5.224;2023-05-20T08:26:14;102397.0;;;19.75;47.33
36834;BME280;48003;52.084;5.224;2023-05-20T08:27:50;102391.0;;;19.78;47.25
36834;BME280;48003;52.084;5.224;2023-05-20T08:31:02;102394.0;;;19.84;46.78
36834;BME280;48003;52.084;5.224;2023-05-20T08:32:38;102391.0;;;19.87;46.72
36834;BME280;48003;52.084;5.224;2023-05-20T08:34:14;102381.0;;;19.89;46.92
36834;BME280;48003;52.084;5.224;2023-05-20T08:37:27;102388.0;;;19.95;47.13
36834;BME280;48003;52.084;5.224;2023-05-20T08:39:03;102375.0;;;20.06;46.74
36834;BME280;48003;52.084;5.224;2023-05-20T08:40:39;102372.0;;;20.11;46.85
36834;BME280;48003;52.084;5.224;2023-05-20T08:42:20;102374.0;;;20.16;47.25
36834;BME280;48003;52.084;5.224;2023-05-20T08:45:37;102372.0;;;20.25;47.44
36834;BME280;48003;52.084;5.224;2023-05-20T08:47:13;102363.0;;;20.27;47.15
36834;BME280;48003;52.084;5.224;2023-05-20T08:48:49;102368.0;;;20.27;45.04
36834;BME280;48003;52.084;5.224;2023-05-20T08:52:03;102369.0;;;20.2;44.73
36834;BME280;48003;52.084;5.224;2023-05-20T08:53:40;102360.0;;;20.18;43.64
36834;BME280;48003;52.084;5.224;2023-05-20T08:55:17;102363.0;;;20.25;43.92
36834;BME280;48003;52.084;5.224;2023-05-20T08:57:01;102355.0;;;20.27;43.42
36834;BME280;48003;52.084;5.224;2023-05-20T09:00:14;102351.0;;;20.41;43.37
36834;BME280;48003;52.084;5.224;2023-05-20T09:01:51;102347.0;;;20.43;42.49
36834;BME280;48003;52.084;5.224;2023-05-20T09:03:27;102353.0;;;20.56;42.84
36834;BME280;48003;52.084;5.224;2023-05-20T09:06:42;102355.0;;;20.65;42.64
36834;BME280;48003;52.084;5.224;2023-05-20T09:08:19;102353.0;;;20.8;42.27
36834;BME280;48003;52.084;5.224;2023-05-20T09:09:59;102344.0;;;20.84;41.91
36834;BME280;48003;52.084;5.224;2023-05-20T09:11:36;102345.0;;;20.84;42.26
36834;BME280;48003;52.084;5.224;2023-05-20T09:14:48;102352.0;;;20.97;42.67
36834;BME280;48003;52.084;5.224;2023-05-20T09:16:24;102348.0;;;21.04;42.1
36834;BME280;48003;52.084;5.224;2023-05-20T09:18:01;102351.0;;;21.19;40.96
36834;BME280;48003;52.084;5.224;2023-05-20T09:21:14;102347.0;;;21.28;41.62
36834;BME280;48003;52.084;5.224;2023-05-20T09:22:50;102340.0;;;21.33;40.57
36834;BME280;48003;52.084;5.224;2023-05-20T09:24:27;102337.0;;;21.27;40.03
36834;BME280;48003;52.084;5.224;2023-05-20T09:27:39;102341.0;;;21.34;40.74
36834;BME280;48003;52.084;5.224;2023-05-20T09:29:16;102330.0;;;21.4;40.51
36834;BME280;48003;52.084;5.224;2023-05-20T09:30:56;102333.0;;;21.46;40.26
36834;BME280;48003;52.084;5.224;2023-05-20T09:32:33;102325.0;;;21.58;40.4
36834;BME280;48003;52.084;5.224;2023-05-20T09:35:48;102328.0;;;21.62;40.46
36834;BME280;48003;52.084;5.224;2023-05-20T09:37:25;102324.0;;;21.62;39.42
36834;BME280;48003;52.084;5.224;2023-05-20T09:39:02;102328.0;;;21.79;39.92
36834;BME280;48003;52.084;5.224;2023-05-20T09:42:21;102320.0;;;21.84;39.5
36834;BME280;48003;52.084;5.224;2023-05-20T09:43:58;102322.0;;;21.86;39.1
36834;BME280;48003;52.084;5.224;2023-05-20T09:45:34;102321.0;;;21.85;38.85
36834;BME280;48003;52.084;5.224;2023-05-20T09:47:14;102317.0;;;21.83;38.51
36834;BME280;48003;52.084;5.224;2023-05-20T09:50:28;102314.0;;;21.67;39.71
36834;BME280;48003;52.084;5.224;2023-05-20T09:52:05;102321.0;;;21.89;38.82
36834;BME280;48003;52.084;5.224;2023-05-20T09:53:42;102305.0;;;21.89;38.17
36834;BME280;48003;52.084;5.224;2023-05-20T09:57:01;102318.0;;;21.88;37.97
36834;BME280;48003;52.084;5.224;2023-05-20T09:58:39;102310.0;;;21.93;37.82
36834;BME280;48003;52.084;5.224;2023-05-20T10:00:16;102316.0;;;22.04;37.92
36834;BME280;48003;52.084;5.224;2023-05-20T10:01:52;102315.0;;;22.13;37.44
36834;BME280;48003;52.084;5.224;2023-05-20T10:05:11;102322.0;;;22.18;37.64
36834;BME280;48003;52.084;5.224;2023-05-20T10:07:02;102306.0;;;22.23;37.65
36834;BME280;48003;52.084;5.224;2023-05-20T10:09:06;102312.0;;;22.22;37.83
36834;BME280;48003;52.084;5.224;2023-05-20T10:10:52;102307.0;;;22.24;37.64
36834;BME280;48003;52.084;5.224;2023-05-20T10:12:36;102307.0;;;22.26;37.03
36834;BME280;48003;52.084;5.224;2023-05-20T10:14:37;102306.0;;;22.21;37.33
36834;BME280;48003;52.084;5.224;2023-05-20T10:18:10;102307.0;;;22.19;38.06
36834;BME280;48003;52.084;5.224;2023-05-20T10:19:57;102295.0;;;22.18;37.74
36834;BME280;48003;52.084;5.224;2023-05-20T10:21:33;102297.0;;;22.22;38.21
36834;BME280;48003;52.084;5.224;2023-05-20T10:23:19;102301.0;;;22.2;37.53
36834;BME280;48003;52.084;5.224;2023-05-20T10:24:58;102301.0;;;22.27;37.96
36834;BME280;48003;52.084;5.224;2023-05-20T10:28:12;102290.0;;;22.2;37.74
36834;BME280;48003;52.084;5.224;2023-05-20T10:29:50;102286.0;;;22.18;38.06
36834;BME280;48003;52.084;5.224;2023-05-20T10:31:27;102287.0;;;22.03;37.68
36834;BME280;48003;52.084;5.224;2023-05-20T10:33:05;102280.0;;;22.07;37.31
36834;BME280;48003;52.084;5.224;2023-05-20T10:36:25;102280.0;;;22.2;38.28
36834;BME280;48003;52.084;5.224;2023-05-20T10:38:07;102275.0;;;22.27;38.08
36834;BME280;48003;52.084;5.224;2023-05-20T10:39:44;102264.0;;;22.32;37.28
36834;BME280;48003;52.084;5.224;2023-05-20T10:43:08;102270.0;;;22.44;38.49
36834;BME280;48003;52.084;5.224;2023-05-20T10:44:45;102278.0;;;22.49;38.43
36834;BME280;48003;52.084;5.224;2023-05-20T10:46:22;102259.0;;;22.49;37.5
36834;BME280;48003;52.084;5.224;2023-05-20T10:47:58;102275.0;;;22.56;37.19
36834;BME280;48003;52.084;5.224;2023-05-20T10:51:14;102270.0;;;22.66;37.54